Time;durP1;ratioP1;P1;durP2;ratioP2;P2;SDS_P1;SDS_P2;PMS_P1;PMS_P2;Temp;Humidity;BMP_temperature;BMP_pressure;BME280_temperature;BME280_humidity;BME280_pressure;Samples;Min_cycle;Max_cycle;Signal;HPM_P1;HPM_P2
2021/08/31 00:02:25;;;;;;;15.02;9.75;;;18.90;94.00;;;;;;5019854;28;20021;-86
2021/08/31 00:04:50;;;;;;;14.02;10.27;;;18.90;94.00;;;;;;5019907;28;20021;-87
2021/08/31 00:07:16;;;;;;;12.68;9.93;;;18.90;94.10;;;;;;5035797;28;20044;-86
2021/08/31 00:09:42;;;;;;;13.35;9.88;;;18.90;94.00;;;;;;5036856;28;20033;-85
2021/08/31 00:12:08;;;;;;;12.10;9.80;;;18.90;94.10;;;;;;5036806;28;20100;-86
2021/08/31 00:14:35;;;;;;;11.73;9.80;;;18.80;94.10;;;;;;5054133;28;20071;-87
2021/08/31 00:17:02;;;;;;;13.88;10.65;;;18.80;94.10;;;;;;5003795;28;20028;-87
2021/08/31 00:19:27;;;;;;;12.70;9.95;;;18.80;94.10;;;;;;5020372;28;20064;-86
2021/08/31 00:21:53;;;;;;;11.52;9.98;;;18.80;94.20;;;;;;5036497;28;20351;-87
2021/08/31 00:24:19;;;;;;;13.13;9.82;;;18.80;94.20;;;;;;5048347;28;20362;-88
2021/08/31 00:26:44;;;;;;;13.77;10.30;;;18.80;94.20;;;;;;5034293;28;20091;-87
2021/08/31 00:29:10;;;;;;;12.77;9.95;;;18.70;94.20;;;;;;5002184;28;20055;-88
2021/08/31 00:31:36;;;;;;;12.85;10.00;;;18.70;94.20;;;;;;5032753;28;20037;-87
2021/08/31 00:34:01;;;;;;;14.15;10.05;;;18.70;94.20;;;;;;5031692;28;20140;-85
2021/08/31 00:36:27;;;;;;;13.65;10.50;;;18.70;94.20;;;;;;5034982;28;20144;-86
2021/08/31 00:38:56;;;;;;;12.88;9.68;;;18.60;94.30;;;;;;5031199;28;20108;-89
2021/08/31 00:41:22;;;;;;;13.23;10.40;;;18.60;94.30;;;;;;5013990;28;20095;-88
2021/08/31 00:43:49;;;;;;;13.15;10.20;;;18.60;94.30;;;;;;5018714;28;20060;-87
2021/08/31 00:46:16;;;;;;;14.10;10.45;;;18.60;94.30;;;;;;5037741;28;20037;-86
2021/08/31 00:48:43;;;;;;;13.85;11.13;;;18.60;94.40;;;;;;5034892;28;20075;-87
2021/08/31 00:51:09;;;;;;;14.30;10.45;;;18.50;94.40;;;;;;5035356;28;20021;-87
2021/08/31 00:53:36;;;;;;;14.55;10.45;;;18.50;94.40;;;;;;5043733;28;20047;-87
2021/08/31 00:56:04;;;;;;;12.30;10.05;;;18.50;94.40;;;;;;5043207;28;20025;-87
2021/08/31 00:58:32;;;;;;;12.70;10.18;;;18.50;94.50;;;;;;5024616;28;20037;-87
2021/08/31 01:00:58;;;;;;;13.10;10.90;;;18.50;94.50;;;;;;5037721;28;20036;-87
2021/08/31 01:03:24;;;;;;;11.50;9.65;;;18.50;94.50;;;;;;5012791;28;20465;-86
2021/08/31 01:05:50;;;;;;;14.85;10.95;;;18.40;94.50;;;;;;5044684;28;20184;-87
2021/08/31 01:08:16;;;;;;;14.23;11.18;;;18.40;94.50;;;;;;5032719;28;20485;-87
2021/08/31 01:10:41;;;;;;;13.68;10.52;;;18.40;94.60;;;;;;5002074;28;20033;-87
2021/08/31 01:13:08;;;;;;;12.73;10.65;;;18.40;94.60;;;;;;5052336;28;20025;-87
2021/08/31 01:15:33;;;;;;;12.80;10.25;;;18.40;94.70;;;;;;5028536;28;20056;-87
2021/08/31 01:18:20;;;;;;;14.52;10.43;;;18.30;94.70;;;;;;5044940;28;20474;-87
2021/08/31 01:20:53;;;;;;;14.07;11.20;;;18.30;94.80;;;;;;5048086;28;20021;-87
2021/08/31 01:23:20;;;;;;;14.13;11.43;;;18.30;94.80;;;;;;5049020;28;20029;-87
2021/08/31 01:25:49;;;;;;;14.82;11.35;;;18.30;94.80;;;;;;5051501;28;20099;-88
2021/08/31 01:28:20;;;;;;;13.98;11.45;;;18.30;94.90;;;;;;5064695;28;20044;-87
2021/08/31 01:30:47;;;;;;;13.48;10.60;;;18.30;94.90;;;;;;5051595;28;20028;-88
2021/08/31 01:33:13;;;;;;;13.70;10.65;;;18.30;95.00;;;;;;5026939;28;20025;-88
2021/08/31 01:35:38;;;;;;;15.02;10.48;;;18.20;95.00;;;;;;5030837;28;20022;-89
2021/08/31 01:38:04;;;;;;;13.70;10.02;;;18.20;95.10;;;;;;5052267;28;20103;-90
2021/08/31 01:40:30;;;;;;;15.25;10.05;;;18.20;95.00;;;;;;5020237;28;20029;-87
2021/08/31 01:42:56;;;;;;;12.75;10.48;;;18.20;95.10;;;;;;5012543;28;20112;-88
2021/08/31 01:45:21;;;;;;;12.32;9.52;;;18.20;95.10;;;;;;5030648;28;20022;-88
2021/08/31 01:47:47;;;;;;;13.50;10.15;;;18.20;95.10;;;;;;5038064;28;20029;-89
2021/08/31 01:50:13;;;;;;;12.27;9.60;;;18.20;95.20;;;;;;5038649;28;20489;-89
2021/08/31 01:52:38;;;;;;;14.82;10.55;;;18.10;95.20;;;;;;5037666;28;20025;-88
2021/08/31 01:55:05;;;;;;;13.80;9.25;;;18.10;95.20;;;;;;5038551;28;20040;-87
2021/08/31 01:57:31;;;;;;;15.20;11.02;;;18.10;95.20;;;;;;5055869;28;20029;-87
2021/08/31 01:59:57;;;;;;;12.80;9.63;;;18.10;95.20;;;;;;5034511;28;20046;-88
2021/08/31 02:02:23;;;;;;;11.35;9.35;;;18.10;95.30;;;;;;5053936;28;20056;-87
2021/08/31 02:04:48;;;;;;;13.70;9.90;;;18.10;95.30;;;;;;5023536;28;20040;-88
2021/08/31 02:07:14;;;;;;;15.30;10.30;;;18.10;95.30;;;;;;5038098;28;20483;-87
2021/08/31 02:09:39;;;;;;;11.35;9.38;;;18.10;95.30;;;;;;5020951;28;20110;-88
2021/08/31 02:12:06;;;;;;;13.10;9.68;;;18.10;95.30;;;;;;5004244;28;20116;-86
2021/08/31 02:14:31;;;;;;;12.05;10.10;;;18.00;95.30;;;;;;5021236;28;20071;-87
2021/08/31 02:16:57;;;;;;;13.30;9.88;;;18.10;95.70;;;;;;5019799;28;20549;-88
2021/08/31 02:19:22;;;;;;;12.40;9.23;;;18.00;95.40;;;;;;5033446;28;20063;-88
2021/08/31 02:21:48;;;;;;;12.27;9.80;;;18.00;95.40;;;;;;5017570;28;20029;-88
2021/08/31 02:24:14;;;;;;;12.65;9.85;;;18.00;95.40;;;;;;5029973;28;20025;-87
2021/08/31 02:26:39;;;;;;;13.13;10.10;;;17.90;95.40;;;;;;5052502;28;20418;-88
2021/08/31 02:29:05;;;;;;;11.60;9.30;;;17.90;95.40;;;;;;5038316;28;20037;-87
2021/08/31 02:31:31;;;;;;;11.77;9.57;;;17.90;95.50;;;;;;5038106;28;20025;-85
2021/08/31 02:33:57;;;;;;;10.93;8.38;;;17.90;95.50;;;;;;5017900;28;20361;-86
2021/08/31 02:36:22;;;;;;;13.30;10.38;;;17.90;95.60;;;;;;5038110;28;20481;-88
2021/08/31 02:38:48;;;;;;;13.07;8.90;;;17.90;95.60;;;;;;5022980;28;20040;-88
2021/08/31 02:41:13;;;;;;;13.45;9.57;;;17.80;95.60;;;;;;5053562;28;20035;-87
2021/08/31 02:43:39;;;;;;;13.20;9.70;;;17.90;95.70;;;;;;5032694;28;20028;-87
2021/08/31 02:46:05;;;;;;;12.88;9.50;;;17.90;95.70;;;;;;5039928;28;20064;-90
2021/08/31 02:48:30;;;;;;;14.52;9.75;;;17.80;95.70;;;;;;5076231;28;20037;-91
2021/08/31 02:50:56;;;;;;;15.70;9.80;;;17.80;95.70;;;;;;5027682;28;20164;-88
2021/08/31 02:53:22;;;;;;;12.10;9.10;;;17.80;95.70;;;;;;5044971;28;20036;-90
2021/08/31 02:55:47;;;;;;;11.80;9.02;;;17.80;95.80;;;;;;5072049;28;20069;-90
2021/08/31 02:58:13;;;;;;;11.10;8.30;;;17.80;95.80;;;;;;5039306;28;20042;-93
2021/08/31 03:00:42;;;;;;;13.13;9.00;;;17.80;95.80;;;;;;5040971;28;20028;-92
2021/08/31 03:03:09;;;;;;;12.20;8.60;;;17.70;95.80;;;;;;5035805;28;20037;-87
2021/08/31 03:05:35;;;;;;;12.80;8.32;;;17.70;95.80;;;;;;5055910;28;20021;-87
2021/08/31 03:08:01;;;;;;;12.65;8.68;;;17.70;95.80;;;;;;5051976;28;20032;-87
2021/08/31 03:10:26;;;;;;;11.85;8.95;;;17.70;95.80;;;;;;5036919;28;20032;-87
2021/08/31 03:12:52;;;;;;;11.07;8.30;;;17.70;95.80;;;;;;5017161;28;20061;-87
2021/08/31 03:15:18;;;;;;;12.70;8.10;;;17.70;95.80;;;;;;5015343;28;20075;-88
2021/08/31 03:17:44;;;;;;;12.80;8.80;;;17.70;95.80;;;;;;5036466;28;20056;-87
2021/08/31 03:20:10;;;;;;;14.20;8.93;;;17.70;95.80;;;;;;5019694;28;20017;-87
2021/08/31 03:22:36;;;;;;;13.10;8.77;;;17.70;95.90;;;;;;5036158;28;20032;-86
2021/08/31 03:25:02;;;;;;;12.38;9.02;;;17.60;95.90;;;;;;5061971;28;20400;-87
2021/08/31 03:27:27;;;;;;;13.13;8.50;;;17.60;95.90;;;;;;5051308;28;20461;-87
2021/08/31 03:29:53;;;;;;;11.98;8.55;;;17.60;95.90;;;;;;5036121;28;20108;-87
2021/08/31 03:32:19;;;;;;;14.15;8.50;;;17.60;96.00;;;;;;5045531;28;20083;-88
2021/08/31 03:34:44;;;;;;;16.08;7.97;;;17.60;96.00;;;;;;5030630;28;20030;-88
2021/08/31 03:37:10;;;;;;;13.48;8.57;;;17.60;96.10;;;;;;5013308;28;20044;-87
2021/08/31 03:39:36;;;;;;;12.73;8.27;;;17.60;96.10;;;;;;5043299;28;20091;-87
2021/08/31 03:42:03;;;;;;;12.48;8.25;;;17.60;96.20;;;;;;5053841;28;20082;-87
2021/08/31 03:44:29;;;;;;;13.60;8.85;;;17.60;96.20;;;;;;5036260;28;20502;-87
2021/08/31 03:46:55;;;;;;;10.93;7.53;;;17.60;96.30;;;;;;5052802;28;20060;-87
2021/08/31 03:49:20;;;;;;;11.82;7.80;;;17.60;96.30;;;;;;5032622;28;20035;-87
2021/08/31 03:51:46;;;;;;;13.52;8.95;;;17.60;96.30;;;;;;5019966;28;20369;-88
2021/08/31 03:54:12;;;;;;;14.10;8.60;;;17.60;96.30;;;;;;5034665;28;20505;-87
2021/08/31 03:56:37;;;;;;;13.60;8.73;;;17.60;96.30;;;;;;5043315;28;20095;-88
2021/08/31 03:59:03;;;;;;;12.82;8.25;;;17.60;96.30;;;;;;5049728;28;20033;-87
2021/08/31 04:01:31;;;;;;;15.98;8.95;;;17.60;96.30;;;;;;5023878;28;20435;-87
2021/08/31 04:03:57;;;;;;;12.55;7.78;;;17.60;96.40;;;;;;5038506;28;20028;-88
2021/08/31 04:06:22;;;;;;;14.95;8.82;;;17.60;96.40;;;;;;5051527;28;20048;-87
2021/08/31 04:08:48;;;;;;;13.52;8.02;;;17.60;96.40;;;;;;5052869;28;20346;-88
2021/08/31 04:11:14;;;;;;;12.30;7.70;;;17.60;96.40;;;;;;5051119;28;20517;-87
2021/08/31 04:13:39;;;;;;;10.93;7.70;;;17.60;96.40;;;;;;5022641;28;20016;-86
2021/08/31 04:16:05;;;;;;;12.75;7.97;;;17.60;96.40;;;;;;5039011;28;20372;-87
2021/08/31 04:18:30;;;;;;;14.90;8.00;;;17.60;96.40;;;;;;5052929;28;20349;-87
2021/08/31 04:20:56;;;;;;;13.25;7.43;;;17.60;96.40;;;;;;5062396;28;20221;-87
2021/08/31 04:23:22;;;;;;;10.32;7.60;;;17.60;96.50;;;;;;5049828;28;20470;-88
2021/08/31 04:25:48;;;;;;;14.02;7.47;;;17.60;96.50;;;;;;5053405;28;20465;-87
2021/08/31 04:28:13;;;;;;;11.02;8.02;;;17.60;96.50;;;;;;5030098;28;20091;-87
2021/08/31 04:30:39;;;;;;;13.43;7.50;;;17.60;96.50;;;;;;5053292;28;20021;-87
2021/08/31 04:33:05;;;;;;;12.25;7.85;;;17.60;96.50;;;;;;5052104;28;20053;-86
2021/08/31 04:35:31;;;;;;;12.25;7.07;;;17.60;96.50;;;;;;5053253;28;20013;-88
2021/08/31 04:37:56;;;;;;;10.63;6.90;;;17.60;96.50;;;;;;5051734;28;20051;-86
2021/08/31 04:40:22;;;;;;;12.35;6.72;;;17.60;96.50;;;;;;5053956;28;20025;-87
2021/08/31 04:42:48;;;;;;;14.18;6.60;;;17.60;96.60;;;;;;5048743;28;20021;-87
2021/08/31 04:45:14;;;;;;;17.15;7.15;;;17.60;96.60;;;;;;5049073;28;20019;-87
2021/08/31 04:47:40;;;;;;;10.95;5.80;;;17.60;96.60;;;;;;5035610;28;20092;-88
2021/08/31 04:50:06;;;;;;;11.43;6.53;;;17.60;96.60;;;;;;5018991;28;20025;-88
2021/08/31 04:52:32;;;;;;;12.43;6.25;;;17.60;96.60;;;;;;5038523;28;20516;-88
2021/08/31 04:54:57;;;;;;;11.15;5.60;;;17.70;96.60;;;;;;5056896;28;20052;-88
2021/08/31 04:57:23;;;;;;;8.90;5.45;;;17.60;96.60;;;;;;5001405;28;20047;-88
2021/08/31 04:59:49;;;;;;;11.43;6.10;;;17.60;96.60;;;;;;5010344;28;20109;-87
2021/08/31 05:02:14;;;;;;;9.95;5.75;;;17.60;96.60;;;;;;5034371;28;20025;-87
2021/08/31 05:04:40;;;;;;;11.73;5.82;;;17.70;96.70;;;;;;5029018;28;20025;-88
2021/08/31 05:07:10;;;;;;;9.93;5.57;;;17.60;96.70;;;;;;5018717;28;20036;-87
2021/08/31 05:09:35;;;;;;;10.85;5.53;;;17.60;96.70;;;;;;5003617;28;20017;-87
2021/08/31 05:12:01;;;;;;;10.75;5.43;;;17.60;96.70;;;;;;5035169;28;20048;-88
2021/08/31 05:14:27;;;;;;;14.23;6.07;;;17.60;96.70;;;;;;5036698;28;20093;-87
2021/08/31 05:16:52;;;;;;;8.77;5.38;;;17.60;96.70;;;;;;5022420;28;20036;-87
2021/08/31 05:19:18;;;;;;;10.82;5.75;;;17.60;96.70;;;;;;5038893;28;20025;-87
2021/08/31 05:21:47;;;;;;;8.77;5.85;;;17.60;96.70;;;;;;5005287;28;20128;-88
2021/08/31 05:24:13;;;;;;;11.05;5.57;;;17.60;96.70;;;;;;5041615;28;20028;-87
2021/08/31 05:26:38;;;;;;;10.05;5.28;;;17.60;96.70;;;;;;5054148;28;20515;-88
2021/08/31 05:29:04;;;;;;;8.90;4.70;;;17.60;96.70;;;;;;5065237;28;20056;-86
2021/08/31 05:31:29;;;;;;;11.07;5.55;;;17.70;96.80;;;;;;5021972;28;20032;-87
2021/08/31 05:33:55;;;;;;;11.48;5.70;;;17.60;96.70;;;;;;5055715;28;20024;-86
2021/08/31 05:36:21;;;;;;;10.00;5.32;;;17.60;96.70;;;;;;5051542;28;20099;-87
2021/08/31 05:38:46;;;;;;;12.80;5.05;;;17.60;96.80;;;;;;5038302;28;20415;-87
2021/08/31 05:41:12;;;;;;;9.68;5.45;;;17.60;96.80;;;;;;5043392;28;20033;-86
2021/08/31 05:43:38;;;;;;;10.27;5.10;;;17.60;96.80;;;;;;5032618;28;20022;-87
2021/08/31 05:46:03;;;;;;;12.77;5.63;;;17.60;96.80;;;;;;5028105;28;20032;-87
2021/08/31 05:48:30;;;;;;;8.85;4.70;;;17.60;96.80;;;;;;5022025;28;20037;-86
2021/08/31 05:50:56;;;;;;;11.68;4.90;;;17.60;96.80;;;;;;5018614;28;20121;-87
2021/08/31 05:53:22;;;;;;;15.70;5.32;;;17.60;96.80;;;;;;5032139;28;20120;-87
2021/08/31 05:55:47;;;;;;;9.77;5.22;;;17.60;96.90;;;;;;5038635;28;20016;-86
2021/08/31 05:58:14;;;;;;;11.50;5.03;;;17.60;96.90;;;;;;5053232;28;20381;-87
2021/08/31 06:00:40;;;;;;;11.88;5.57;;;17.60;97.00;;;;;;5048432;28;20104;-88
2021/08/31 06:03:06;;;;;;;9.15;5.13;;;17.60;97.00;;;;;;5038077;28;20093;-87
2021/08/31 06:05:31;;;;;;;10.10;4.88;;;17.70;97.00;;;;;;5004450;28;20036;-88
2021/08/31 06:07:57;;;;;;;8.10;4.53;;;17.60;97.10;;;;;;5037959;28;20028;-86
2021/08/31 06:10:23;;;;;;;10.23;5.38;;;17.60;97.00;;;;;;5031644;28;20031;-88
2021/08/31 06:12:48;;;;;;;9.15;5.07;;;17.60;97.10;;;;;;5057149;28;20028;-87
2021/08/31 06:15:14;;;;;;;12.15;5.43;;;17.60;97.10;;;;;;5038526;28;20032;-87
2021/08/31 06:17:40;;;;;;;10.63;5.10;;;17.60;97.10;;;;;;5038236;28;20029;-86
2021/08/31 06:20:08;;;;;;;12.82;4.85;;;17.60;97.10;;;;;;5037500;28;20067;-89
2021/08/31 06:22:34;;;;;;;10.80;5.00;;;17.60;97.20;;;;;;5038099;28;20093;-86
2021/08/31 06:25:00;;;;;;;11.27;5.18;;;17.60;97.20;;;;;;5004871;28;20111;-85
2021/08/31 06:27:26;;;;;;;12.98;4.80;;;17.60;97.20;;;;;;5057762;28;20052;-86
2021/08/31 06:29:52;;;;;;;11.98;5.38;;;17.70;97.20;;;;;;5050328;28;20048;-86
2021/08/31 06:32:18;;;;;;;9.48;4.88;;;17.60;97.10;;;;;;5059366;28;20025;-90
2021/08/31 06:34:43;;;;;;;11.48;4.93;;;17.70;97.20;;;;;;5060656;28;20008;-90
2021/08/31 06:37:09;;;;;;;10.57;4.60;;;17.70;97.20;;;;;;5060317;28;20049;-88
2021/08/31 06:39:35;;;;;;;10.35;4.70;;;17.70;97.10;;;;;;5040573;28;20021;-87
2021/08/31 06:42:00;;;;;;;11.40;5.00;;;17.70;97.20;;;;;;5071356;28;20048;-90
2021/08/31 06:44:26;;;;;;;11.68;5.55;;;17.70;97.10;;;;;;5049401;28;20025;-86
2021/08/31 06:46:52;;;;;;;11.98;5.20;;;17.70;97.10;;;;;;5047500;28;20053;-86
2021/08/31 06:49:18;;;;;;;10.65;4.88;;;17.70;97.10;;;;;;5038608;28;20021;-86
2021/08/31 06:51:43;;;;;;;9.18;4.90;;;17.70;97.10;;;;;;5018180;28;20056;-85
2021/08/31 06:54:10;;;;;;;12.23;4.90;;;17.70;97.10;;;;;;5049098;28;20029;-86
2021/08/31 06:56:35;;;;;;;10.30;4.90;;;17.70;97.10;;;;;;5039137;28;20345;-86
2021/08/31 06:59:01;;;;;;;10.45;4.95;;;17.70;97.10;;;;;;5021125;28;20037;-86
2021/08/31 07:01:28;;;;;;;8.20;4.60;;;17.80;97.10;;;;;;5036341;28;20123;-86
2021/08/31 07:03:53;;;;;;;8.85;4.80;;;17.80;97.10;;;;;;5049645;28;20032;-87
2021/08/31 07:06:19;;;;;;;12.45;5.75;;;17.80;97.10;;;;;;5031243;28;20078;-87
2021/08/31 07:08:45;;;;;;;9.15;4.97;;;17.80;97.10;;;;;;5043387;28;20053;-92
2021/08/31 07:11:12;;;;;;;9.43;4.95;;;17.80;97.10;;;;;;5058687;28;20025;-92
2021/08/31 07:13:40;;;;;;;9.35;4.80;;;17.80;97.10;;;;;;5019083;28;20024;-96
2021/08/31 07:16:06;;;;;;;10.15;4.90;;;17.80;97.10;;;;;;5080226;28;20020;-92
2021/08/31 07:18:32;;;;;;;11.40;5.03;;;17.80;97.10;;;;;;5032653;28;20083;-94
2021/08/31 07:20:57;;;;;;;8.95;5.10;;;17.80;97.00;;;;;;5033618;28;20029;-86
2021/08/31 07:23:23;;;;;;;10.38;5.30;;;17.80;97.00;;;;;;5044403;28;20473;-87
2021/08/31 07:25:49;;;;;;;9.07;4.85;;;17.80;97.00;;;;;;5038717;28;20481;-87
2021/08/31 07:28:15;;;;;;;9.13;4.80;;;17.80;97.00;;;;;;5037595;28;20037;-87
2021/08/31 07:30:41;;;;;;;11.02;5.00;;;17.80;97.00;;;;;;5025509;28;20021;-86
2021/08/31 07:33:08;;;;;;;7.60;4.72;;;17.90;97.00;;;;;;5019532;28;20433;-86
2021/08/31 07:35:34;;;;;;;8.13;4.78;;;17.90;96.90;;;;;;5049040;28;20017;-86
2021/08/31 07:38:00;;;;;;;8.35;4.90;;;17.90;96.90;;;;;;5014752;28;20157;-86
2021/08/31 07:40:26;;;;;;;9.27;4.85;;;17.90;96.90;;;;;;4999951;28;20504;-87
2021/08/31 07:42:52;;;;;;;10.23;4.93;;;17.90;96.80;;;;;;4996531;28;20200;-87
2021/08/31 07:45:19;;;;;;;10.98;4.70;;;17.90;96.80;;;;;;5010502;28;20054;-86
2021/08/31 07:47:45;;;;;;;9.90;4.90;;;17.90;96.80;;;;;;5023885;28;20053;-86
2021/08/31 07:50:11;;;;;;;8.15;4.47;;;18.00;96.80;;;;;;5015863;28;20150;-87
2021/08/31 07:52:37;;;;;;;10.57;4.38;;;18.00;96.80;;;;;;5033300;28;20043;-86
2021/08/31 07:55:05;;;;;;;8.88;4.15;;;18.00;97.00;;;;;;5017130;28;20068;-87
2021/08/31 07:57:31;;;;;;;9.05;4.60;;;18.00;96.70;;;;;;5030286;28;20021;-86
2021/08/31 07:59:57;;;;;;;6.07;4.30;;;18.00;96.70;;;;;;4999148;28;20429;-86
2021/08/31 08:02:23;;;;;;;10.10;4.57;;;18.00;96.70;;;;;;5001265;28;20021;-86
2021/08/31 08:04:48;;;;;;;7.10;3.45;;;18.10;96.70;;;;;;5021789;28;20084;-85
2021/08/31 08:07:14;;;;;;;8.20;4.30;;;18.10;96.60;;;;;;5023497;28;20525;-86
2021/08/31 08:09:40;;;;;;;8.82;3.95;;;18.20;96.70;;;;;;5015535;28;20461;-90
2021/08/31 08:12:06;;;;;;;8.13;4.05;;;18.20;96.60;;;;;;5012591;28;20064;-86
2021/08/31 08:14:31;;;;;;;7.32;3.92;;;18.20;96.60;;;;;;5034972;28;20036;-86
2021/08/31 08:16:57;;;;;;;6.80;4.45;;;18.30;96.60;;;;;;5006166;28;20038;-84
2021/08/31 08:19:23;;;;;;;10.88;4.07;;;18.30;96.60;;;;;;5031823;28;20378;-86
2021/08/31 08:21:48;;;;;;;8.73;4.05;;;18.30;96.60;;;;;;5016933;28;20029;-87
2021/08/31 08:24:14;;;;;;;7.32;3.88;;;18.40;96.60;;;;;;5015315;28;20436;-86
2021/08/31 08:26:40;;;;;;;8.02;4.15;;;18.40;96.50;;;;;;4982909;28;20485;-85
2021/08/31 08:29:06;;;;;;;6.90;3.85;;;18.40;96.50;;;;;;5018033;28;20041;-87
2021/08/31 08:31:33;;;;;;;7.55;4.10;;;18.40;96.50;;;;;;5000454;28;20026;-86
2021/08/31 08:34:00;;;;;;;7.95;3.95;;;18.40;96.50;;;;;;5015428;28;20029;-86
2021/08/31 08:36:30;;;;;;;7.75;4.38;;;18.50;96.50;;;;;;5029418;28;20059;-84
2021/08/31 08:38:57;;;;;;;6.20;3.65;;;18.50;96.40;;;;;;5032529;28;20057;-86
2021/08/31 08:41:22;;;;;;;8.70;4.07;;;18.50;96.40;;;;;;4990762;28;20044;-86
2021/08/31 08:43:48;;;;;;;8.57;3.85;;;18.50;96.30;;;;;;5032605;28;20104;-86
2021/08/31 08:46:14;;;;;;;8.07;3.80;;;18.60;96.40;;;;;;5016224;28;20075;-86
2021/08/31 08:48:40;;;;;;;8.95;4.25;;;18.60;96.30;;;;;;5015839;28;20124;-86
2021/08/31 08:51:06;;;;;;;6.05;3.55;;;18.60;96.30;;;;;;5053161;28;20065;-86
2021/08/31 08:53:33;;;;;;;8.80;4.15;;;18.60;96.30;;;;;;5011449;28;20025;-86
2021/08/31 08:56:00;;;;;;;8.27;3.63;;;18.70;96.30;;;;;;5000863;28;20121;-86
2021/08/31 08:58:27;;;;;;;7.18;3.92;;;18.70;96.20;;;;;;5015328;28;20037;-86
2021/08/31 09:01:08;;;;;;;7.60;3.83;;;18.70;96.20;;;;;;5019491;28;20091;-86
2021/08/31 09:03:34;;;;;;;;;;;18.70;96.10;;;;;;5020169;28;20021;-86
2021/08/31 09:06:13;;;;;;;6.55;3.75;;;18.80;96.20;;;;;;5020745;28;19909;-84
2021/08/31 09:09:01;;;;;;;6.35;3.88;;;18.80;96.10;;;;;;5027240;28;20037;-86
2021/08/31 09:11:35;;;;;;;9.57;3.70;;;18.80;96.10;;;;;;5024929;28;20038;-86
2021/08/31 09:14:27;;;;;;;7.30;3.60;;;18.80;96.10;;;;;;5001302;28;20037;-86
2021/08/31 09:16:58;;;;;;;7.95;3.53;;;18.80;96.10;;;;;;5049838;28;20022;-87
2021/08/31 09:19:38;;;;;;;7.25;3.88;;;18.90;96.10;;;;;;5058991;28;20036;-87
2021/08/31 09:22:16;;;;;;;6.30;3.53;;;18.90;96.10;;;;;;5059260;28;20006;-89
2021/08/31 09:25:08;;;;;;;5.90;3.35;;;19.00;96.10;;;;;;5057913;28;20039;-87
2021/08/31 09:27:41;;;;;;;5.70;3.40;;;19.00;96.10;;;;;;5042795;28;20018;-86
2021/08/31 09:30:24;;;;;;;5.68;3.40;;;19.10;96.00;;;;;;5040422;28;20006;-88
2021/08/31 09:33:12;;;;;;;6.65;3.75;;;19.10;95.90;;;;;;5058717;28;20013;-91
2021/08/31 09:35:40;;;;;;;6.05;3.80;;;19.10;95.80;;;;;;5030079;28;20020;-87
2021/08/31 09:38:07;;;;;;;8.02;4.00;;;19.20;95.70;;;;;;5045795;28;20056;-88
2021/08/31 09:40:44;;;;;;;7.28;3.47;;;19.30;95.60;;;;;;5098443;28;20032;-89
2021/08/31 09:43:16;;;;;;;5.93;3.33;;;19.30;95.50;;;;;;5081108;28;20016;-87
2021/08/31 09:45:43;;;;;;;10.68;4.15;;;19.40;95.40;;;;;;5091851;28;20025;-86
2021/08/31 09:48:12;;;;;;;8.05;3.63;;;19.40;95.30;;;;;;5072750;28;20035;-86
2021/08/31 09:50:49;;;;;;;6.18;3.47;;;19.50;95.30;;;;;;5056727;28;20055;-85
2021/08/31 09:53:23;;;;;;;6.20;3.47;;;19.60;95.30;;;;;;5035095;28;20112;-87
2021/08/31 09:56:01;;;;;;;5.88;3.47;;;19.60;95.20;;;;;;5062676;28;20013;-90
2021/08/31 09:58:27;;;;;;;7.40;3.53;;;19.70;95.10;;;;;;5069265;28;20020;-93
2021/08/31 10:00:54;;;;;;;5.97;3.13;;;19.80;95.10;;;;;;5070168;28;20020;-92
2021/08/31 10:03:21;;;;;;;9.02;4.32;;;19.80;95.20;;;;;;5069171;28;20009;-92
2021/08/31 10:05:48;;;;;;;8.10;3.85;;;19.90;95.00;;;;;;5064139;28;20059;-91
2021/08/31 10:08:15;;;;;;;6.43;3.63;;;19.90;94.80;;;;;;5070918;28;20036;-92
2021/08/31 10:10:43;;;;;;;5.38;3.13;;;20.00;94.70;;;;;;5061993;28;20033;-93
2021/08/31 10:13:23;;;;;;;6.13;3.70;;;20.00;94.70;;;;;;5065339;28;20009;-92
2021/08/31 10:15:51;;;;;;;6.85;3.53;;;20.10;94.70;;;;;;5066014;28;20089;-92
2021/08/31 10:18:19;;;;;;;5.10;3.28;;;20.10;94.50;;;;;;5093445;28;20028;-91
2021/08/31 10:20:55;;;;;;;6.45;4.03;;;20.20;94.50;;;;;;5057987;28;20026;-92
2021/08/31 10:23:29;;;;;;;7.40;3.78;;;20.20;94.50;;;;;;5078106;28;20009;-92
2021/08/31 10:26:23;;;;;;;7.68;3.75;;;20.30;94.50;;;;;;5061039;28;20005;-92
2021/08/31 10:29:11;;;;;;;6.63;3.78;;;20.30;94.50;;;;;;5061859;28;20035;-92
2021/08/31 10:31:37;;;;;;;8.45;3.95;;;20.40;94.40;;;;;;5077255;28;20028;-92
2021/08/31 10:34:32;;;;;;;7.05;3.22;;;20.50;94.30;;;;;;5045312;28;20044;-93
2021/08/31 10:37:10;;;;;;;6.38;3.63;;;20.60;94.30;;;;;;5056184;28;20132;-92
2021/08/31 10:39:41;;;;;;;5.85;3.65;;;20.70;94.20;;;;;;5051431;28;20029;-92
2021/08/31 10:42:33;;;;;;;5.57;3.33;;;20.70;93.90;;;;;;5043728;28;20033;-91
2021/08/31 10:45:23;;;;;;;6.15;3.05;;;20.70;93.90;;;;;;5064616;28;20033;-91
2021/08/31 10:47:49;;;;;;;7.40;3.63;;;20.80;93.80;;;;;;5057063;28;20108;-92
2021/08/31 10:50:17;;;;;;;6.95;3.72;;;20.80;93.80;;;;;;5065534;28;20033;-92
2021/08/31 10:52:50;;;;;;;7.32;3.60;;;20.90;93.80;;;;;;5054275;28;20021;-91
2021/08/31 10:55:26;;;;;;;5.70;3.50;;;20.90;93.70;;;;;;5053369;28;20033;-91
2021/08/31 10:57:53;;;;;;;5.75;3.55;;;20.90;93.60;;;;;;5052626;28;20533;-90
2021/08/31 11:00:19;;;;;;;6.85;3.90;;;21.00;93.60;;;;;;5048637;28;20083;-92
2021/08/31 11:02:50;;;;;;;6.60;3.45;;;21.00;93.60;;;;;;5049875;28;20030;-92
2021/08/31 11:05:22;;;;;;;7.68;3.67;;;21.10;93.40;;;;;;5036492;28;20037;-93
2021/08/31 11:07:49;;;;;;;5.32;3.03;;;21.10;93.20;;;;;;5033319;28;20116;-91
2021/08/31 11:10:30;;;;;;;6.13;3.30;;;21.20;93.00;;;;;;5036416;28;20269;-92
2021/08/31 11:13:09;;;;;;;6.97;3.33;;;21.20;92.70;;;;;;5026998;28;20025;-92
2021/08/31 11:15:35;;;;;;;4.72;3.00;;;21.30;92.60;;;;;;5024425;28;20087;-92
2021/08/31 11:18:06;;;;;;;5.07;3.17;;;21.30;92.20;;;;;;5035656;28;20025;-93
2021/08/31 11:20:33;;;;;;;6.65;3.47;;;21.40;92.00;;;;;;5020045;28;20025;-93
2021/08/31 11:23:14;;;;;;;6.18;3.17;;;21.50;91.90;;;;;;5039045;28;20036;-92
2021/08/31 11:25:54;;;;;;;7.20;3.20;;;21.60;91.70;;;;;;5032470;28;20025;-93
2021/08/31 11:28:21;;;;;;;5.82;3.20;;;21.70;91.70;;;;;;5026095;28;20037;-93
2021/08/31 11:30:51;;;;;;;4.30;2.88;;;21.80;92.00;;;;;;5036092;28;20029;-93
2021/08/31 11:33:38;;;;;;;3.88;2.72;;;21.80;91.80;;;;;;5031234;28;20029;-92
2021/08/31 11:36:15;;;;;;;8.13;3.88;;;21.90;91.70;;;;;;5018609;28;20033;-93
2021/08/31 11:38:47;;;;;;;5.05;3.10;;;21.90;91.60;;;;;;5051411;28;20040;-91
2021/08/31 11:41:19;;;;;;;7.07;3.75;;;22.00;91.50;;;;;;5051225;28;20045;-92
2021/08/31 11:43:56;;;;;;;5.30;2.88;;;22.00;91.40;;;;;;5039133;28;20029;-93
2021/08/31 11:46:31;;;;;;;4.60;3.05;;;22.10;91.20;;;;;;5038799;28;20086;-94
2021/08/31 11:49:17;;;;;;;5.72;2.85;;;22.20;91.10;;;;;;5038506;28;20037;-93
2021/08/31 11:52:02;;;;;;;5.18;2.90;;;22.30;91.00;;;;;;5058913;28;20025;-93
2021/08/31 11:54:33;;;;;;;4.28;2.80;;;22.30;90.70;;;;;;5039988;28;20037;-93
2021/08/31 11:57:02;;;;;;;5.40;3.15;;;22.40;90.60;;;;;;5040075;28;20469;-92
2021/08/31 11:59:43;;;;;;;4.53;2.97;;;22.50;90.40;;;;;;5055910;28;20037;-92
2021/08/31 12:02:19;;;;;;;5.55;3.17;;;22.60;90.30;;;;;;5025025;28;20047;-95
2021/08/31 12:04:46;;;;;;;5.13;3.08;;;22.70;90.10;;;;;;5022892;28;20103;-94
2021/08/31 12:07:15;;;;;;;7.10;3.25;;;22.70;90.10;;;;;;5067411;28;20021;-94
2021/08/31 12:09:42;;;;;;;6.47;3.53;;;22.70;90.00;;;;;;5056846;28;20051;-94
2021/08/31 12:12:11;;;;;;;5.55;2.97;;;22.80;89.80;;;;;;5049121;28;20044;-94
2021/08/31 12:14:38;;;;;;;5.93;3.05;;;22.90;89.60;;;;;;5055704;28;20017;-92
2021/08/31 12:17:03;;;;;;;6.07;3.38;;;22.90;89.40;;;;;;5041457;28;20116;-94
2021/08/31 12:19:29;;;;;;;4.95;3.30;;;23.00;88.60;;;;;;5034441;28;20068;-93
2021/08/31 12:22:16;;;;;;;6.13;2.80;;;23.10;88.60;;;;;;5054643;28;20020;-94
2021/08/31 12:24:44;;;;;;;6.13;2.95;;;23.20;88.40;;;;;;5052500;28;20025;-94
2021/08/31 12:27:13;;;;;;;7.88;3.08;;;23.20;88.40;;;;;;5022046;28;20124;-94
2021/08/31 12:29:54;;;;;;;6.43;3.40;;;23.30;88.00;;;;;;5038739;28;20033;-93
2021/08/31 12:32:27;;;;;;;5.80;3.17;;;23.40;87.90;;;;;;5054301;28;20020;-88
2021/08/31 12:34:55;;;;;;;6.70;3.55;;;23.40;87.30;;;;;;5035416;28;20029;-87
2021/08/31 12:37:30;;;;;;;6.85;2.83;;;23.50;86.70;;;;;;5017487;28;20164;-87
2021/08/31 12:40:16;;;;;;;7.18;3.85;;;23.50;86.00;;;;;;5060283;28;20036;-92
2021/08/31 12:42:47;;;;;;;6.07;3.13;;;23.50;85.10;;;;;;5040306;28;20051;-92
2021/08/31 12:45:13;;;;;;;6.82;3.30;;;23.50;85.20;;;;;;5037177;28;20021;-91
2021/08/31 12:47:58;;;;;;;5.43;3.22;;;23.50;85.30;;;;;;5038264;28;20032;-92